createdAt,value
2018-04-14T00:00:33.497Z,58.62
2018-04-14T00:03:02.028Z,58.88
2018-04-14T00:05:30.496Z,59.16
2018-04-14T00:07:58.960Z,59.40
2018-04-14T00:10:27.469Z,59.50
2018-04-14T00:12:55.990Z,60.15
2018-04-14T00:15:24.526Z,60.39
2018-04-14T00:17:53.001Z,60.28
2018-04-14T00:20:21.483Z,60.30
2018-04-14T00:22:50.024Z,60.28
2018-04-14T00:25:18.529Z,60.41
2018-04-14T00:27:47.000Z,60.45
2018-04-14T00:30:15.472Z,60.68
2018-04-14T00:32:43.995Z,60.58
2018-04-14T00:35:12.484Z,60.50
2018-04-14T00:37:40.948Z,60.80
2018-04-14T00:40:09.474Z,60.82
2018-04-14T00:42:37.936Z,60.81
2018-04-14T00:45:06.430Z,60.89
2018-04-14T00:47:34.892Z,60.77
2018-04-14T00:50:03.401Z,60.83
2018-04-14T00:52:31.904Z,60.75
2018-04-14T00:55:00.419Z,60.74
2018-04-14T00:57:28.904Z,60.95
2018-04-14T00:59:57.385Z,60.57
2018-04-14T01:02:25.908Z,60.20
2018-04-14T01:04:54.390Z,60.34
2018-04-14T01:07:22.903Z,60.93
2018-04-14T01:09:51.401Z,61.17
2018-04-14T01:12:19.888Z,60.93
2018-04-14T01:14:48.400Z,60.86
2018-04-14T01:17:16.909Z,60.52
2018-04-14T01:19:45.462Z,60.18
2018-04-14T01:22:13.996Z,59.71
2018-04-14T01:24:42.533Z,59.54
2018-04-14T01:27:11.040Z,59.95
2018-04-14T01:29:39.541Z,60.81
2018-04-14T01:32:08.000Z,60.95
2018-04-14T01:34:36.530Z,61.36
2018-04-14T01:37:04.992Z,61.24
2018-04-14T01:39:33.508Z,61.99
2018-04-14T01:42:02.046Z,61.87
2018-04-14T01:44:30.505Z,62.28
2018-04-14T01:46:59.012Z,62.09
2018-04-14T01:49:27.484Z,62.21
2018-04-14T01:51:56.009Z,62.28
2018-04-14T01:54:24.449Z,62.46
2018-04-14T01:56:52.988Z,62.46
2018-04-14T01:59:21.449Z,62.56
2018-04-14T02:01:49.916Z,62.50
2018-04-14T02:04:18.433Z,62.66
2018-04-14T02:06:46.911Z,62.48
2018-04-14T02:09:15.452Z,62.69
2018-04-14T02:11:44.006Z,62.84
2018-04-14T02:14:12.518Z,62.86
2018-04-14T02:16:41.114Z,62.80
2018-04-14T02:19:09.596Z,62.79
2018-04-14T02:21:38.068Z,62.72
2018-04-14T02:24:06.564Z,62.70
2018-04-14T02:26:35.085Z,62.51
2018-04-14T02:29:03.571Z,62.43
2018-04-14T02:31:32.070Z,62.50
2018-04-14T02:34:00.577Z,62.62
2018-04-14T02:36:29.021Z,62.79
2018-04-14T02:38:57.516Z,62.60
2018-04-14T02:41:25.981Z,62.79
2018-04-14T02:43:54.497Z,62.84
2018-04-14T02:46:22.960Z,62.88
2018-04-14T02:48:51.491Z,62.99
2018-04-14T02:51:19.959Z,63.01
2018-04-14T02:53:48.444Z,63.09
2018-04-14T02:56:16.944Z,63.06
2018-04-14T02:58:45.452Z,63.21
2018-04-14T03:01:13.991Z,63.55
2018-04-14T03:03:42.479Z,63.49
2018-04-14T03:06:10.948Z,63.85
2018-04-14T03:08:39.476Z,63.74
2018-04-14T03:11:07.946Z,63.89
2018-04-14T03:13:36.484Z,63.89
2018-04-14T03:16:04.992Z,63.95
2018-04-14T03:18:33.514Z,64.05
2018-04-14T03:21:01.989Z,64.15
2018-04-14T03:23:30.895Z,64.27
2018-04-14T03:25:59.375Z,64.34
2018-04-14T03:28:27.882Z,64.36
2018-04-14T03:30:56.435Z,64.44
2018-04-14T03:33:24.953Z,64.48
2018-04-14T03:35:53.440Z,64.59
2018-04-14T03:38:21.941Z,64.75
2018-04-14T03:40:50.402Z,64.64
2018-04-14T03:43:18.864Z,64.69
2018-04-14T03:45:47.338Z,64.83
2018-04-14T03:48:15.842Z,65.01
2018-04-14T03:50:44.352Z,65.01
2018-04-14T03:53:12.813Z,64.92
2018-04-14T03:55:41.327Z,65.31
2018-04-14T03:58:09.835Z,65.23
2018-04-14T04:00:38.336Z,65.37
2018-04-14T04:03:06.833Z,65.45
2018-04-14T04:05:35.340Z,65.39
2018-04-14T04:08:03.872Z,65.35
2018-04-14T04:10:32.367Z,65.79
2018-04-14T04:13:00.892Z,66.21
2018-04-14T04:15:29.381Z,66.87
2018-04-14T04:17:57.876Z,66.96
2018-04-14T04:20:39.014Z,67.17
2018-04-14T04:23:19.252Z,67.08
2018-04-14T04:25:47.490Z,67.05
2018-04-14T04:28:15.731Z,67.11
2018-04-14T04:30:43.912Z,66.88
2018-04-14T04:33:12.164Z,66.47
2018-04-14T04:35:40.335Z,66.33
2018-04-14T04:38:08.544Z,66.11
2018-04-14T04:40:36.728Z,65.62
2018-04-14T04:43:04.944Z,65.60
2018-04-14T04:45:33.182Z,65.29
2018-04-14T04:48:01.356Z,65.19
2018-04-14T04:50:29.533Z,64.80
2018-04-14T04:52:57.729Z,64.74
2018-04-14T04:55:25.896Z,63.91
2018-04-14T04:57:54.110Z,62.66
2018-04-14T05:00:22.294Z,62.31
2018-04-14T05:02:50.500Z,61.32
2018-04-14T05:05:18.684Z,60.59
2018-04-14T05:07:46.919Z,59.17
2018-04-14T05:10:15.103Z,58.03
2018-04-14T05:12:43.272Z,57.50
2018-04-14T05:15:11.484Z,57.75
2018-04-14T05:17:39.670Z,56.95
2018-04-14T05:20:07.870Z,57.18
2018-04-14T05:22:36.041Z,56.40
2018-04-14T05:25:04.267Z,56.14
2018-04-14T05:27:32.466Z,55.70
2018-04-14T05:30:00.657Z,55.34
2018-04-14T05:32:28.879Z,54.97
2018-04-14T05:34:57.057Z,55.19
2018-04-14T05:37:25.286Z,55.53
2018-04-14T05:39:53.461Z,55.23
2018-04-14T05:42:21.680Z,55.62
2018-04-14T05:44:49.889Z,55.79
2018-04-14T05:47:18.057Z,55.53
2018-04-14T05:49:46.282Z,54.43
2018-04-14T05:52:14.499Z,53.80
2018-04-14T05:54:42.730Z,53.45
2018-04-14T05:57:10.922Z,52.54
2018-04-14T05:59:39.111Z,52.30
2018-04-14T06:02:07.328Z,52.06
2018-04-14T06:04:35.495Z,51.96
2018-04-14T06:07:03.700Z,51.38
2018-04-14T06:09:31.942Z,52.76
2018-04-14T06:12:00.134Z,50.95
2018-04-14T06:14:28.308Z,50.44
2018-04-14T06:16:56.530Z,50.40
2018-04-14T06:19:24.708Z,50.99
2018-04-14T06:21:52.925Z,49.77
2018-04-14T06:24:21.116Z,50.08
2018-04-14T06:26:49.337Z,50.36
2018-04-14T06:29:17.543Z,49.03
2018-04-14T06:31:45.760Z,49.01
2018-04-14T06:34:13.998Z,49.22
2018-04-14T06:36:42.177Z,48.83
2018-04-14T06:39:10.400Z,48.29
2018-04-14T06:41:38.600Z,47.79
2018-04-14T06:44:06.826Z,47.85
2018-04-14T06:46:35.131Z,48.06
2018-04-14T06:49:03.309Z,48.37
2018-04-14T06:51:31.543Z,47.42
2018-04-14T06:53:59.757Z,46.78
2018-04-14T06:56:27.985Z,46.92
2018-04-14T06:58:56.169Z,45.65
2018-04-14T07:01:24.394Z,45.11
2018-04-14T07:03:52.568Z,45.25
2018-04-14T07:06:20.793Z,45.16
2018-04-14T07:08:48.980Z,45.00
2018-04-14T07:11:17.156Z,44.21
2018-04-14T07:13:45.416Z,44.43
2018-04-14T07:16:13.584Z,44.32
2018-04-14T07:18:41.777Z,43.41
2018-04-14T07:21:09.948Z,44.18
2018-04-14T07:23:38.165Z,43.66
2018-04-14T07:26:06.324Z,43.49
2018-04-14T07:28:34.536Z,43.04
2018-04-14T07:31:02.717Z,42.90
2018-04-14T07:33:31.024Z,43.48
2018-04-14T07:35:59.200Z,42.54
2018-04-14T07:38:27.381Z,41.96
2018-04-14T07:40:55.588Z,42.38
2018-04-14T07:43:23.760Z,41.83
2018-04-14T07:45:51.980Z,41.39
2018-04-14T07:48:20.153Z,41.31
2018-04-14T07:50:48.372Z,41.45
2018-04-14T07:53:16.553Z,40.48
2018-04-14T07:55:44.737Z,41.13
2018-04-14T07:58:12.979Z,40.61
2018-04-14T08:00:41.186Z,41.39
2018-04-14T08:03:09.419Z,40.97
2018-04-14T08:05:37.632Z,40.77
2018-04-14T08:08:05.842Z,39.98
2018-04-14T08:10:34.012Z,40.50
2018-04-14T08:13:02.244Z,39.77
2018-04-14T08:15:30.438Z,39.84
2018-04-14T08:17:58.617Z,39.34
2018-04-14T08:20:26.825Z,39.67
2018-04-14T08:22:55.029Z,39.72
2018-04-14T08:25:23.244Z,39.35
2018-04-14T08:27:51.459Z,38.78
2018-04-14T08:30:19.648Z,38.96
2018-04-14T08:32:47.856Z,38.91
2018-04-14T08:35:16.032Z,39.02
2018-04-14T08:37:44.257Z,38.73
2018-04-14T08:40:12.451Z,39.01
2018-04-14T08:42:40.636Z,38.91
2018-04-14T08:45:08.853Z,38.37
2018-04-14T08:47:37.028Z,38.44
2018-04-14T08:50:05.248Z,38.76
2018-04-14T08:52:33.418Z,38.42
2018-04-14T08:55:01.592Z,37.88
2018-04-14T08:57:29.797Z,38.78
2018-04-14T08:59:57.981Z,38.73
2018-04-14T09:02:26.197Z,38.93
2018-04-14T09:04:54.376Z,38.54
2018-04-14T09:07:22.592Z,38.59
2018-04-14T09:09:50.780Z,38.03
2018-04-14T09:12:19.008Z,38.16
2018-04-14T09:14:47.229Z,38.14
2018-04-14T09:17:15.421Z,38.53
2018-04-14T09:19:43.923Z,38.16
2018-04-14T09:22:12.401Z,39.30
2018-04-14T09:24:40.912Z,38.72
2018-04-14T09:27:09.400Z,38.44
2018-04-14T09:29:37.908Z,38.35
2018-04-14T09:32:06.373Z,38.90
2018-04-14T09:34:34.884Z,38.60
2018-04-14T09:37:03.400Z,38.13
2018-04-14T09:39:31.955Z,37.79
2018-04-14T09:42:00.438Z,38.03
2018-04-14T09:44:28.941Z,37.77
2018-04-14T09:46:57.449Z,37.21
2018-04-14T09:49:25.948Z,37.21
2018-04-14T09:51:54.408Z,37.32
2018-04-14T09:54:22.908Z,37.07
2018-04-14T09:56:51.413Z,37.35
2018-04-14T09:59:19.927Z,36.93
2018-04-14T10:01:51.207Z,37.17
2018-04-14T10:04:19.749Z,37.52
2018-04-14T10:06:48.208Z,37.95
2018-04-14T10:09:16.709Z,37.79
2018-04-14T10:11:45.230Z,38.12
2018-04-14T10:14:13.700Z,38.05
2018-04-14T10:16:42.172Z,37.40
2018-04-14T10:19:10.681Z,36.98
2018-04-14T10:21:39.288Z,37.29
2018-04-14T10:24:07.824Z,37.31
2018-04-14T10:26:36.312Z,36.86
2018-04-14T10:29:04.807Z,36.74
2018-04-14T10:31:33.326Z,37.27
2018-04-14T10:34:01.855Z,36.52
2018-04-14T10:36:30.330Z,36.50
2018-04-14T10:38:58.824Z,36.24
2018-04-14T10:41:27.328Z,35.98
2018-04-14T10:43:55.808Z,35.89
2018-04-14T10:46:24.299Z,35.54
2018-04-14T10:48:52.764Z,35.42
2018-04-14T10:51:21.272Z,34.87
2018-04-14T10:53:49.786Z,35.67
2018-04-14T10:56:18.250Z,35.15
2018-04-14T10:58:46.749Z,34.12
2018-04-14T11:01:15.215Z,34.46
2018-04-14T11:03:43.712Z,34.20
2018-04-14T11:06:12.172Z,33.85
2018-04-14T11:08:40.628Z,34.80
2018-04-14T11:11:09.143Z,34.25
2018-04-14T11:13:37.658Z,34.17
2018-04-14T11:16:06.167Z,33.13
2018-04-14T11:18:34.635Z,33.79
2018-04-14T11:21:03.136Z,35.01
2018-04-14T11:23:31.893Z,35.23
2018-04-14T11:26:00.396Z,31.87
2018-04-14T11:28:28.861Z,33.39
2018-04-14T11:30:57.363Z,33.23
2018-04-14T11:33:25.820Z,33.41
2018-04-14T11:35:54.316Z,33.28
2018-04-14T11:38:22.787Z,32.22
2018-04-14T11:40:51.307Z,33.02
2018-04-14T11:43:19.764Z,33.87
2018-04-14T11:45:48.268Z,32.78
2018-04-14T11:48:16.732Z,33.54
2018-04-14T11:50:45.250Z,32.27
2018-04-14T11:53:13.718Z,31.09
2018-04-14T11:55:42.216Z,31.25
2018-04-14T11:58:10.718Z,31.92
2018-04-14T12:00:39.193Z,31.75
2018-04-14T12:03:07.673Z,32.38
2018-04-14T12:05:36.128Z,32.75
2018-04-14T12:08:04.595Z,33.26
2018-04-14T12:10:33.100Z,32.75
2018-04-14T12:13:01.569Z,31.82
2018-04-14T12:15:30.098Z,32.21
2018-04-14T12:17:58.604Z,32.82
2018-04-14T12:20:27.105Z,32.11
2018-04-14T12:22:55.598Z,32.42
2018-04-14T12:25:24.096Z,32.59
2018-04-14T12:27:52.576Z,31.42
2018-04-14T12:30:21.093Z,30.50
2018-04-14T12:32:49.544Z,31.66
2018-04-14T12:35:18.020Z,29.79
2018-04-14T12:37:46.528Z,28.55
2018-04-14T12:40:14.988Z,29.80
2018-04-14T12:42:43.476Z,29.98
2018-04-14T12:45:11.940Z,30.26
2018-04-14T12:47:40.436Z,28.58
2018-04-14T12:50:08.936Z,28.27
2018-04-14T12:52:37.431Z,26.91
2018-04-14T12:55:05.900Z,27.17
2018-04-14T12:57:34.397Z,27.20
2018-04-14T13:00:02.882Z,27.92
2018-04-14T13:02:31.365Z,27.64
2018-04-14T13:04:59.874Z,28.08
2018-04-14T13:07:28.338Z,28.32
2018-04-14T13:09:56.828Z,28.75
2018-04-14T13:12:25.342Z,28.01
2018-04-14T13:14:53.809Z,27.80
2018-04-14T13:17:22.272Z,28.26
2018-04-14T13:19:50.772Z,27.85
2018-04-14T13:22:19.284Z,27.99
2018-04-14T13:24:47.767Z,28.33
2018-04-14T13:27:16.272Z,28.51
2018-04-14T13:29:44.705Z,28.96
2018-04-14T13:32:13.216Z,28.44
2018-04-14T13:34:41.686Z,29.38
2018-04-14T13:37:10.188Z,29.87
2018-04-14T13:39:38.684Z,30.21
2018-04-14T13:42:07.166Z,30.62
2018-04-14T13:44:35.664Z,30.04
2018-04-14T13:47:04.119Z,30.92
2018-04-14T13:49:32.621Z,29.21
2018-04-14T13:52:01.101Z,28.93
2018-04-14T13:54:29.616Z,29.71
2018-04-14T13:56:58.073Z,29.84
2018-04-14T13:59:26.536Z,29.24
2018-04-14T14:01:55.021Z,29.93
2018-04-14T14:04:23.515Z,30.20
2018-04-14T14:06:51.954Z,29.99
2018-04-14T14:09:20.456Z,30.83
2018-04-14T14:11:48.956Z,30.72
2018-04-14T14:14:17.441Z,31.15
2018-04-14T14:16:45.941Z,31.72
2018-04-14T14:19:14.448Z,32.29
2018-04-14T14:21:42.887Z,32.02
2018-04-14T14:24:11.352Z,32.23
2018-04-14T14:26:39.811Z,32.83
2018-04-14T14:29:08.309Z,32.58
2018-04-14T14:31:36.776Z,32.55
2018-04-14T14:34:05.248Z,32.40
2018-04-14T14:36:33.739Z,31.82
2018-04-14T14:39:02.208Z,32.56
2018-04-14T14:41:30.739Z,33.05
2018-04-14T14:43:59.245Z,33.88
2018-04-14T14:46:27.740Z,34.10
2018-04-14T14:48:56.207Z,32.89
2018-04-14T14:51:24.701Z,33.83
2018-04-14T14:53:53.180Z,34.45
2018-04-14T14:56:21.692Z,34.03
2018-04-14T14:58:50.203Z,33.58
2018-04-14T15:01:18.750Z,34.53
2018-04-14T15:03:47.204Z,34.32
2018-04-14T15:06:15.720Z,35.10
2018-04-14T15:08:44.197Z,35.42
2018-04-14T15:11:12.704Z,35.46
2018-04-14T15:13:41.168Z,35.43
2018-04-14T15:16:09.668Z,35.23
2018-04-14T15:18:38.134Z,35.23
2018-04-14T15:21:06.631Z,35.78
2018-04-14T15:23:35.121Z,35.68
2018-04-14T15:26:03.584Z,36.39
2018-04-14T15:28:32.080Z,36.93
2018-04-14T15:31:00.568Z,37.28
2018-04-14T15:33:29.060Z,37.33
2018-04-14T15:35:57.968Z,37.13
2018-04-14T15:38:26.486Z,37.91
2018-04-14T15:40:54.962Z,38.07
2018-04-14T15:43:23.483Z,38.44
2018-04-14T15:45:51.952Z,38.79
2018-04-14T15:48:20.471Z,39.38
2018-04-14T15:50:48.939Z,39.56
2018-04-14T15:53:17.408Z,39.88
2018-04-14T15:55:45.912Z,40.64
2018-04-14T15:58:14.390Z,40.93
2018-04-14T16:00:42.880Z,40.65
2018-04-14T16:03:11.337Z,41.28
2018-04-14T16:05:39.847Z,40.99
2018-04-14T16:08:08.309Z,41.20
2018-04-14T16:10:36.812Z,41.48
2018-04-14T16:13:05.328Z,42.14
2018-04-14T16:15:33.848Z,42.27
2018-04-14T16:18:02.364Z,42.62
2018-04-14T16:20:30.892Z,42.28
2018-04-14T16:22:59.403Z,42.61
2018-04-14T16:25:27.863Z,42.80
2018-04-14T16:27:56.357Z,43.04
2018-04-14T16:30:24.875Z,43.35
2018-04-14T16:32:53.372Z,43.61
2018-04-14T16:35:21.860Z,43.77
2018-04-14T16:37:50.401Z,44.18
2018-04-14T16:40:18.852Z,44.61
2018-04-14T16:42:47.374Z,44.89
2018-04-14T16:45:15.824Z,45.31
2018-04-14T16:47:44.288Z,45.77
2018-04-14T16:50:12.806Z,45.90
2018-04-14T16:52:41.304Z,46.21
2018-04-14T16:55:09.809Z,46.48
2018-04-14T16:57:38.311Z,46.91
2018-04-14T17:00:06.776Z,47.35
2018-04-14T17:02:35.280Z,47.62
2018-04-14T17:05:03.765Z,47.91
2018-04-14T17:07:32.281Z,48.21
2018-04-14T17:10:00.751Z,48.62
2018-04-14T17:12:29.284Z,49.00
2018-04-14T17:14:57.761Z,49.03
2018-04-14T17:17:26.220Z,48.99
2018-04-14T17:19:54.712Z,48.96
2018-04-14T17:22:23.158Z,48.89
2018-04-14T17:24:51.652Z,49.39
2018-04-14T17:27:20.140Z,49.41
2018-04-14T17:29:48.651Z,49.35
2018-04-14T17:32:17.112Z,49.27
2018-04-14T17:34:45.611Z,49.26
2018-04-14T17:37:14.135Z,48.95
2018-04-14T17:39:42.645Z,48.94
2018-04-14T17:42:11.166Z,49.28
2018-04-14T17:44:39.677Z,49.78
2018-04-14T17:47:08.186Z,50.61
2018-04-14T17:49:36.696Z,50.77
2018-04-14T17:52:05.212Z,50.78
2018-04-14T17:54:33.677Z,50.62
2018-04-14T17:57:02.180Z,50.59
2018-04-14T17:59:30.647Z,50.53
2018-04-14T18:01:59.160Z,50.67
2018-04-14T18:04:27.658Z,50.54
2018-04-14T18:06:56.171Z,50.88
2018-04-14T18:09:24.645Z,51.08
2018-04-14T18:11:53.152Z,51.65
2018-04-14T18:14:21.694Z,51.56
2018-04-14T18:16:50.210Z,52.08
2018-04-14T18:19:18.708Z,52.07
2018-04-14T18:21:47.216Z,52.04
2018-04-14T18:24:15.729Z,52.19
2018-04-14T18:26:44.192Z,52.32
2018-04-14T18:29:12.656Z,52.39
2018-04-14T18:31:41.184Z,52.34
2018-04-14T18:34:09.641Z,52.35
2018-04-14T18:36:38.109Z,52.42
2018-04-14T18:39:06.686Z,52.55
2018-04-14T18:41:35.209Z,52.73
2018-04-14T18:44:03.729Z,53.11
2018-04-14T18:46:32.220Z,53.23
2018-04-14T18:49:00.689Z,53.40
2018-04-14T18:51:29.198Z,53.30
2018-04-14T18:53:57.738Z,53.57
2018-04-14T18:56:26.259Z,53.33
2018-04-14T18:58:54.716Z,53.50
2018-04-14T19:01:23.274Z,53.81
2018-04-14T19:03:51.764Z,53.55
2018-04-14T19:06:20.268Z,53.76
2018-04-14T19:08:48.702Z,53.96
2018-04-14T19:11:17.172Z,53.88
2018-04-14T19:13:45.680Z,53.87
2018-04-14T19:16:14.132Z,53.96
2018-04-14T19:18:42.632Z,53.72
2018-04-14T19:21:11.132Z,53.65
2018-04-14T19:23:39.624Z,53.65
2018-04-14T19:26:08.125Z,53.73
2018-04-14T19:28:36.612Z,53.77
2018-04-14T19:31:05.056Z,53.89
2018-04-14T19:33:33.540Z,54.05
2018-04-14T19:36:02.005Z,54.42
2018-04-14T19:38:30.496Z,54.53
2018-04-14T19:40:59.004Z,54.63
2018-04-14T19:43:27.483Z,55.00
2018-04-14T19:45:55.941Z,55.03
2018-04-14T19:48:24.437Z,54.95
2018-04-14T19:50:52.946Z,55.17
2018-04-14T19:53:21.444Z,55.38
2018-04-14T19:55:49.942Z,55.51
2018-04-14T19:58:18.437Z,55.68
2018-04-14T20:00:46.934Z,55.63
2018-04-14T20:03:15.396Z,55.66
2018-04-14T20:05:43.877Z,55.76
2018-04-14T20:08:12.345Z,56.09
2018-04-14T20:10:40.844Z,56.17
2018-04-14T20:13:09.311Z,56.04
2018-04-14T20:15:37.815Z,56.35
2018-04-14T20:18:06.277Z,56.62
2018-04-14T20:20:34.773Z,56.53
2018-04-14T20:23:03.247Z,56.72
2018-04-14T20:25:31.763Z,57.24
2018-04-14T20:28:00.263Z,57.48
2018-04-14T20:30:28.719Z,57.49
2018-04-14T20:32:57.220Z,57.67
2018-04-14T20:35:25.712Z,57.48
2018-04-14T20:37:54.204Z,57.69
2018-04-14T20:40:22.657Z,58.34
2018-04-14T20:42:51.160Z,58.28
2018-04-14T20:45:19.631Z,58.29
2018-04-14T20:47:48.117Z,58.36
2018-04-14T20:50:16.612Z,58.56
2018-04-14T20:52:45.144Z,58.48
2018-04-14T20:55:13.632Z,58.72
2018-04-14T20:57:42.098Z,58.78
2018-04-14T21:00:10.589Z,59.16
2018-04-14T21:02:39.048Z,59.04
2018-04-14T21:05:07.561Z,59.17
2018-04-14T21:07:36.056Z,59.21
2018-04-14T21:10:04.577Z,59.49
2018-04-14T21:12:33.052Z,59.20
2018-04-14T21:15:01.564Z,59.69
2018-04-14T21:17:30.057Z,59.66
2018-04-14T21:19:58.577Z,59.46
2018-04-14T21:22:27.060Z,59.69
2018-04-14T21:24:56.379Z,59.54
2018-04-14T21:27:24.868Z,59.35
2018-04-14T21:29:53.324Z,59.42
2018-04-14T21:32:21.821Z,59.30
2018-04-14T21:34:50.285Z,59.48
2018-04-14T21:37:18.765Z,59.45
2018-04-14T21:39:47.220Z,59.41
2018-04-14T21:42:15.735Z,59.32
2018-04-14T21:44:44.196Z,59.56
2018-04-14T21:47:12.708Z,59.26
2018-04-14T21:49:41.209Z,59.26
2018-04-14T21:52:09.672Z,59.25
2018-04-14T21:54:38.129Z,59.42
2018-04-14T21:57:06.592Z,59.57
2018-04-14T21:59:35.089Z,59.73
2018-04-14T22:02:03.600Z,59.78
2018-04-14T22:04:32.074Z,59.53
2018-04-14T22:07:00.578Z,59.72
2018-04-14T22:09:29.067Z,60.04
2018-04-14T22:11:57.536Z,60.02
2018-04-14T22:14:32.944Z,60.27
2018-04-14T22:17:01.444Z,60.10
2018-04-14T22:19:29.936Z,60.27
2018-04-14T22:21:58.437Z,60.33
2018-04-14T22:24:26.924Z,60.32
2018-04-14T22:26:55.452Z,60.22
2018-04-14T22:29:23.914Z,60.40
2018-04-14T22:31:52.408Z,60.52
2018-04-14T22:34:20.908Z,60.61
2018-04-14T22:36:49.366Z,60.69
2018-04-14T22:39:17.856Z,61.10
2018-04-14T22:41:46.312Z,61.05
2018-04-14T22:44:14.845Z,61.52
2018-04-14T22:46:43.293Z,61.64
2018-04-14T22:49:11.784Z,61.59
2018-04-14T22:51:40.259Z,61.86
2018-04-14T22:54:08.768Z,62.03
2018-04-14T22:56:37.237Z,62.00
2018-04-14T22:59:05.740Z,62.43
2018-04-14T23:01:34.240Z,62.29
2018-04-14T23:04:02.701Z,62.32
2018-04-14T23:06:31.208Z,63.27
2018-04-14T23:08:59.734Z,62.95
2018-04-14T23:11:28.229Z,63.02
2018-04-14T23:13:56.693Z,62.83
2018-04-14T23:16:25.212Z,63.36
2018-04-14T23:18:53.712Z,63.44
2018-04-14T23:21:22.223Z,63.82
2018-04-14T23:23:50.732Z,63.63
2018-04-14T23:26:19.251Z,63.72
2018-04-14T23:28:47.720Z,64.21
2018-04-14T23:31:16.256Z,64.98
2018-04-14T23:33:44.764Z,64.87
2018-04-14T23:36:13.277Z,65.36
2018-04-14T23:38:41.788Z,65.17
2018-04-14T23:41:10.270Z,65.28
2018-04-14T23:43:38.770Z,65.44
2018-04-14T23:46:07.245Z,65.85
2018-04-14T23:48:35.756Z,66.05
2018-04-14T23:51:04.277Z,66.08
2018-04-14T23:53:32.732Z,65.99
2018-04-14T23:56:01.260Z,66.37
2018-04-14T23:58:29.729Z,66.52
